TUI24N EDDF-LIMC
Flight info
| Callsign | TUI24N |
|---|---|
| Flight time | N/A |
| Altitude | 31000 |
| Route | ANEKI2L ANEKI Y163 PABLA/N0457F310 Y163 NATOR DCT DITON DCT BASGO Z424 RIXUV |
| Aircraft | B738/M-SDE2E3FGHIRWXY/LB1 |
Departure
| Time | 2026-05-05 20:10 |
|---|---|
| Airport | Frankfurt Main Airport (EDDF) |
Arrival
| Time | N/A |
|---|---|
| Airport | Milan Malpensa International Airport (LIMC) |
| Time | Latitude | Longitude | Altitude | Speed | Heading |
|---|---|---|---|---|---|
| 2026-05-05 19:27 | 50.04987 | 8.58446 | 362 ft | 0 kts | 317° |
| 2026-05-05 19:53 | 50.04985 | 8.58448 | 358 ft | 3 kts | 317° |
| 2026-05-05 19:54 | 50.04965 | 8.58476 | 363 ft | 4 kts | 320° |
| 2026-05-05 19:54 | 50.04947 | 8.58498 | 361 ft | 3 kts | 323° |
| 2026-05-05 19:54 | 50.04926 | 8.58512 | 362 ft | 4 kts | 18° |
| 2026-05-05 19:54 | 50.04908 | 8.58489 | 360 ft | 4 kts | 65° |
| 2026-05-05 19:55 | 50.04905 | 8.58480 | 359 ft | 0 kts | 69° |
| 2026-05-05 19:58 | 50.04907 | 8.58489 | 360 ft | 5 kts | 69° |
| 2026-05-05 19:58 | 50.04925 | 8.58564 | 371 ft | 9 kts | 69° |
| 2026-05-05 19:59 | 50.04952 | 8.58672 | 361 ft | 12 kts | 69° |
| 2026-05-05 19:59 | 50.04985 | 8.58811 | 363 ft | 15 kts | 70° |
| 2026-05-05 19:59 | 50.05024 | 8.58976 | 362 ft | 17 kts | 70° |
| 2026-05-05 19:59 | 50.05065 | 8.59150 | 361 ft | 16 kts | 70° |
| 2026-05-05 20:00 | 50.05074 | 8.59268 | 366 ft | 10 kts | 111° |
| 2026-05-05 20:00 | 50.05018 | 8.59322 | 363 ft | 7 kts | 159° |
| 2026-05-05 20:00 | 50.04972 | 8.59352 | 367 ft | 7 kts | 156° |
| 2026-05-05 20:00 | 50.04928 | 8.59383 | 369 ft | 7 kts | 155° |
| 2026-05-05 20:01 | 50.04887 | 8.59422 | 368 ft | 7 kts | 144° |
| 2026-05-05 20:01 | 50.04837 | 8.59488 | 369 ft | 13 kts | 138° |
| 2026-05-05 20:01 | 50.04754 | 8.59586 | 372 ft | 15 kts | 156° |
| 2026-05-05 20:01 | 50.04650 | 8.59616 | 374 ft | 15 kts | 177° |
| 2026-05-05 20:02 | 50.04543 | 8.59623 | 375 ft | 16 kts | 178° |
| 2026-05-05 20:02 | 50.04422 | 8.59630 | 375 ft | 19 kts | 178° |
| 2026-05-05 20:02 | 50.04283 | 8.59637 | 375 ft | 21 kts | 178° |
| 2026-05-05 20:02 | 50.04125 | 8.59596 | 374 ft | 25 kts | 200° |
| 2026-05-05 20:03 | 50.03966 | 8.59466 | 372 ft | 27 kts | 218° |
| 2026-05-05 20:03 | 50.03855 | 8.59225 | 367 ft | 28 kts | 248° |
| 2026-05-05 20:03 | 50.03790 | 8.58946 | 366 ft | 28 kts | 250° |
| 2026-05-05 20:03 | 50.03717 | 8.58646 | 362 ft | 31 kts | 249° |
| 2026-05-05 20:04 | 50.03641 | 8.58326 | 361 ft | 32 kts | 250° |
| 2026-05-05 20:04 | 50.03565 | 8.58009 | 360 ft | 30 kts | 250° |
| 2026-05-05 20:04 | 50.03494 | 8.57710 | 357 ft | 29 kts | 250° |
| 2026-05-05 20:04 | 50.03428 | 8.57429 | 360 ft | 27 kts | 249° |
| 2026-05-05 20:05 | 50.03364 | 8.57167 | 354 ft | 25 kts | 250° |
| 2026-05-05 20:05 | 50.03305 | 8.56921 | 352 ft | 23 kts | 250° |
| 2026-05-05 20:05 | 50.03251 | 8.56684 | 349 ft | 24 kts | 250° |
| 2026-05-05 20:05 | 50.03193 | 8.56448 | 347 ft | 23 kts | 250° |
| 2026-05-05 20:06 | 50.03138 | 8.56214 | 349 ft | 24 kts | 250° |
| 2026-05-05 20:06 | 50.03076 | 8.55952 | 343 ft | 27 kts | 250° |
| 2026-05-05 20:06 | 50.03008 | 8.55673 | 346 ft | 28 kts | 249° |
| 2026-05-05 20:06 | 50.02939 | 8.55379 | 346 ft | 30 kts | 249° |
| 2026-05-05 20:07 | 50.02868 | 8.55087 | 348 ft | 28 kts | 249° |
| 2026-05-05 20:07 | 50.02802 | 8.54811 | 339 ft | 27 kts | 250° |
| 2026-05-05 20:07 | 50.02739 | 8.54549 | 337 ft | 25 kts | 249° |
| 2026-05-05 20:07 | 50.02683 | 8.54302 | 335 ft | 23 kts | 256° |
| 2026-05-05 20:08 | 50.02632 | 8.54056 | 335 ft | 25 kts | 249° |
| 2026-05-05 20:08 | 50.02569 | 8.53791 | 331 ft | 26 kts | 250° |
| 2026-05-05 20:08 | 50.02508 | 8.53537 | 335 ft | 24 kts | 249° |
| 2026-05-05 20:08 | 50.02451 | 8.53299 | 333 ft | 23 kts | 250° |
| 2026-05-05 20:09 | 50.02396 | 8.53068 | 331 ft | 23 kts | 249° |
| 2026-05-05 20:09 | 50.02342 | 8.52846 | 332 ft | 22 kts | 249° |
| 2026-05-05 20:09 | 50.02297 | 8.52660 | 334 ft | 15 kts | 249° |
| 2026-05-05 20:09 | 50.02194 | 8.52605 | 330 ft | 27 kts | 179° |
| 2026-05-05 20:10 | 50.01766 | 8.52609 | 331 ft | 96 kts | 180° |
| 2026-05-05 20:10 | 50.00891 | 8.52617 | 331 ft | 153 kts | 180° |
| 2026-05-05 20:10 | 49.99791 | 8.52622 | 858 ft | 162 kts | 180° |
| 2026-05-05 20:10 | 49.98631 | 8.52683 | 1531 ft | 167 kts | 181° |
| 2026-05-05 20:11 | 49.97479 | 8.52529 | 2243 ft | 171 kts | 188° |
| 2026-05-05 20:11 | 49.96183 | 8.52568 | 2523 ft | 200 kts | 178° |
| 2026-05-05 20:11 | 49.94718 | 8.52752 | 2788 ft | 219 kts | 178° |
| 2026-05-05 20:11 | 49.93193 | 8.52935 | 3309 ft | 225 kts | 178° |
| 2026-05-05 20:12 | 49.91624 | 8.53103 | 3910 ft | 227 kts | 179° |
| 2026-05-05 20:12 | 49.90035 | 8.53254 | 4622 ft | 230 kts | 179° |
| 2026-05-05 20:12 | 49.88436 | 8.53394 | 5424 ft | 230 kts | 179° |
| 2026-05-05 20:12 | 49.86829 | 8.53524 | 6196 ft | 232 kts | 180° |
| 2026-05-05 20:13 | 49.85200 | 8.53647 | 6899 ft | 236 kts | 180° |
| 2026-05-05 20:13 | 49.83555 | 8.53767 | 7604 ft | 238 kts | 180° |
| 2026-05-05 20:13 | 49.81892 | 8.53885 | 8292 ft | 241 kts | 180° |
| 2026-05-05 20:13 | 49.80211 | 8.54004 | 8993 ft | 243 kts | 180° |
| 2026-05-05 20:14 | 49.78511 | 8.54122 | 9696 ft | 246 kts | 180° |
| 2026-05-05 20:14 | 49.76768 | 8.54094 | 10123 ft | 259 kts | 186° |
| 2026-05-05 20:14 | 49.74916 | 8.53851 | 10304 ft | 281 kts | 187° |
| 2026-05-05 20:14 | 49.72892 | 8.53544 | 10484 ft | 304 kts | 187° |
| 2026-05-05 20:15 | 49.70709 | 8.53214 | 10650 ft | 325 kts | 187° |
| 2026-05-05 20:15 | 49.68386 | 8.52874 | 10806 ft | 346 kts | 187° |
| 2026-05-05 20:15 | 49.65929 | 8.52528 | 11012 ft | 362 kts | 187° |
| 2026-05-05 20:15 | 49.63403 | 8.52184 | 11607 ft | 365 kts | 187° |
| 2026-05-05 20:16 | 49.60868 | 8.51844 | 12245 ft | 368 kts | 187° |
| 2026-05-05 20:16 | 49.58304 | 8.51504 | 12843 ft | 372 kts | 187° |
| 2026-05-05 20:16 | 49.55744 | 8.51165 | 13462 ft | 376 kts | 187° |
| 2026-05-05 20:16 | 49.53125 | 8.50819 | 14067 ft | 380 kts | 187° |
| 2026-05-05 20:17 | 49.50481 | 8.50470 | 14681 ft | 383 kts | 186° |
| 2026-05-05 20:17 | 49.47811 | 8.50118 | 15291 ft | 387 kts | 186° |
| 2026-05-05 20:17 | 49.45121 | 8.49763 | 15889 ft | 390 kts | 186° |
| 2026-05-05 20:17 | 49.42399 | 8.49405 | 16506 ft | 393 kts | 186° |
| 2026-05-05 20:18 | 49.39678 | 8.49048 | 17232 ft | 393 kts | 186° |
| 2026-05-05 20:18 | 49.36939 | 8.48688 | 17793 ft | 397 kts | 186° |
| 2026-05-05 20:18 | 49.34207 | 8.48329 | 18306 ft | 401 kts | 186° |
| 2026-05-05 20:18 | 49.31410 | 8.47962 | 18814 ft | 404 kts | 186° |
| 2026-05-05 20:19 | 49.28599 | 8.47598 | 19337 ft | 407 kts | 185° |
| 2026-05-05 20:19 | 49.25768 | 8.47237 | 19848 ft | 410 kts | 185° |
| 2026-05-05 20:19 | 49.22920 | 8.46879 | 20337 ft | 413 kts | 185° |
| 2026-05-05 20:19 | 49.20047 | 8.46518 | 20843 ft | 414 kts | 185° |
| 2026-05-05 20:20 | 49.17175 | 8.46156 | 21382 ft | 416 kts | 185° |
| 2026-05-05 20:20 | 49.14277 | 8.45791 | 21838 ft | 419 kts | 185° |
| 2026-05-05 20:20 | 49.11363 | 8.45425 | 22300 ft | 422 kts | 185° |
| 2026-05-05 20:20 | 49.08470 | 8.45061 | 22756 ft | 424 kts | 185° |
| 2026-05-05 20:21 | 49.05522 | 8.44594 | 23203 ft | 428 kts | 189° |
| 2026-05-05 20:21 | 49.02597 | 8.43663 | 23621 ft | 431 kts | 193° |
| 2026-05-05 20:21 | 48.99680 | 8.42590 | 24041 ft | 432 kts | 193° |
| 2026-05-05 20:21 | 48.96770 | 8.41503 | 24565 ft | 430 kts | 193° |
| 2026-05-05 20:22 | 48.93852 | 8.40434 | 24928 ft | 434 kts | 193° |
| 2026-05-05 20:22 | 48.90898 | 8.39379 | 25215 ft | 438 kts | 192° |
| 2026-05-05 20:22 | 48.87916 | 8.38332 | 25566 ft | 440 kts | 192° |
| 2026-05-05 20:22 | 48.84972 | 8.37308 | 25972 ft | 441 kts | 192° |
| 2026-05-05 20:23 | 48.81975 | 8.36268 | 26312 ft | 443 kts | 192° |
| 2026-05-05 20:23 | 48.78959 | 8.35222 | 26621 ft | 446 kts | 192° |
| 2026-05-05 20:23 | 48.75940 | 8.34149 | 27195 ft | 441 kts | 193° |
| 2026-05-05 20:23 | 48.72978 | 8.33070 | 27909 ft | 436 kts | 194° |
| 2026-05-05 20:24 | 48.70033 | 8.31990 | 28302 ft | 437 kts | 194° |
| 2026-05-05 20:24 | 48.67065 | 8.30904 | 28635 ft | 439 kts | 194° |
| 2026-05-05 20:24 | 48.64093 | 8.29821 | 29069 ft | 439 kts | 194° |
| 2026-05-05 20:24 | 48.61134 | 8.28747 | 29619 ft | 436 kts | 194° |
| 2026-05-05 20:25 | 48.58232 | 8.27697 | 30126 ft | 433 kts | 194° |
| 2026-05-05 20:25 | 48.55301 | 8.26638 | 30435 ft | 435 kts | 194° |
| 2026-05-05 20:25 | 48.52353 | 8.25582 | 30690 ft | 435 kts | 192° |
| 2026-05-05 20:25 | 48.49352 | 8.24953 | 30855 ft | 436 kts | 184° |
| 2026-05-05 20:26 | 48.46312 | 8.24985 | 30845 ft | 437 kts | 175° |
| 2026-05-05 20:26 | 48.40322 | 8.26428 | 30865 ft | 435 kts | 172° |
| 2026-05-05 20:27 | 48.34392 | 8.27929 | 30856 ft | 435 kts | 173° |
| 2026-05-05 20:27 | 48.28428 | 8.29373 | 30867 ft | 434 kts | 173° |
| 2026-05-05 20:28 | 48.22468 | 8.30795 | 30878 ft | 434 kts | 173° |
| 2026-05-05 20:28 | 48.16497 | 8.32155 | 30881 ft | 433 kts | 176° |
| 2026-05-05 20:29 | 48.10490 | 8.32374 | 30879 ft | 432 kts | 182° |
| 2026-05-05 20:29 | 48.04505 | 8.32348 | 30885 ft | 433 kts | 182° |
| 2026-05-05 20:30 | 47.98476 | 8.32370 | 30885 ft | 434 kts | 182° |
| 2026-05-05 20:30 | 47.92440 | 8.32440 | 30899 ft | 434 kts | 181° |
| 2026-05-05 20:31 | 47.86407 | 8.32525 | 30900 ft | 434 kts | 181° |
| 2026-05-05 20:31 | 47.80411 | 8.32610 | 30897 ft | 433 kts | 181° |
| 2026-05-05 20:32 | 47.74391 | 8.32694 | 30895 ft | 433 kts | 181° |
| 2026-05-05 20:32 | 47.68371 | 8.32777 | 30906 ft | 432 kts | 182° |
| 2026-05-05 20:33 | 47.62374 | 8.32860 | 30900 ft | 431 kts | 182° |
| 2026-05-05 20:33 | 47.56381 | 8.32942 | 30907 ft | 430 kts | 182° |
| 2026-05-05 20:34 | 47.50444 | 8.33024 | 30907 ft | 429 kts | 182° |
| 2026-05-05 20:34 | 47.44467 | 8.33106 | 30909 ft | 429 kts | 182° |
| 2026-05-05 20:35 | 47.38498 | 8.33187 | 30896 ft | 429 kts | 182° |
| 2026-05-05 20:35 | 47.32531 | 8.33268 | 30907 ft | 429 kts | 182° |
| 2026-05-05 20:36 | 47.26607 | 8.33688 | 30919 ft | 430 kts | 179° |
| 2026-05-05 20:36 | 47.20654 | 8.34542 | 30911 ft | 430 kts | 178° |
| 2026-05-05 20:37 | 47.14712 | 8.35407 | 30918 ft | 429 kts | 178° |
| 2026-05-05 20:37 | 47.08772 | 8.36237 | 30909 ft | 429 kts | 179° |
| 2026-05-05 20:38 | 47.02845 | 8.37049 | 30928 ft | 427 kts | 179° |
| 2026-05-05 20:38 | 46.96981 | 8.37844 | 30935 ft | 424 kts | 179° |
| 2026-05-05 20:39 | 46.91122 | 8.38636 | 30946 ft | 421 kts | 179° |
| 2026-05-05 20:39 | 46.85283 | 8.39431 | 30940 ft | 421 kts | 179° |
| 2026-05-05 20:40 | 46.79454 | 8.40221 | 30924 ft | 420 kts | 180° |
| 2026-05-05 20:40 | 46.73636 | 8.41006 | 30698 ft | 417 kts | 179° |
| 2026-05-05 20:41 | 46.67926 | 8.41781 | 30791 ft | 400 kts | 180° |
| 2026-05-05 20:41 | 46.65244 | 8.42149 | 30804 ft | 384 kts | 180° |
| 2026-05-05 20:41 | 46.62643 | 8.42505 | 30839 ft | 368 kts | 180° |
| 2026-05-05 20:41 | 46.60141 | 8.42844 | 30816 ft | 354 kts | 181° |
| 2026-05-05 20:42 | 46.57713 | 8.43169 | 30607 ft | 348 kts | 181° |
| 2026-05-05 20:42 | 46.55322 | 8.43485 | 30373 ft | 342 kts | 181° |
| 2026-05-05 20:42 | 46.52958 | 8.43796 | 30138 ft | 340 kts | 181° |
| 2026-05-05 20:42 | 46.50605 | 8.44106 | 29877 ft | 339 kts | 181° |
| 2026-05-05 20:43 | 46.48266 | 8.44416 | 29588 ft | 336 kts | 181° |
| 2026-05-05 20:43 | 46.45956 | 8.44724 | 29275 ft | 331 kts | 181° |
| 2026-05-05 20:43 | 46.43683 | 8.45028 | 29040 ft | 325 kts | 181° |
| 2026-05-05 20:44 | 46.39337 | 8.45610 | 28943 ft | 309 kts | 181° |
| 2026-05-05 20:44 | 46.35032 | 8.46174 | 28968 ft | 315 kts | 181° |
| 2026-05-05 20:45 | 46.28462 | 8.47046 | 28980 ft | 314 kts | 181° |
| 2026-05-05 20:45 | 46.24081 | 8.47661 | 28723 ft | 320 kts | 180° |
| 2026-05-05 20:46 | 46.21866 | 8.47992 | 28526 ft | 321 kts | 180° |
| 2026-05-05 20:46 | 46.19672 | 8.48320 | 28340 ft | 321 kts | 180° |
| 2026-05-05 20:46 | 46.17459 | 8.48651 | 28134 ft | 319 kts | 180° |
| 2026-05-05 20:46 | 46.15247 | 8.48976 | 28036 ft | 322 kts | 180° |
| 2026-05-05 20:47 | 46.13013 | 8.49302 | 27994 ft | 322 kts | 180° |
| 2026-05-05 20:47 | 46.10798 | 8.49790 | 27991 ft | 323 kts | 173° |
| 2026-05-05 20:47 | 46.08642 | 8.50794 | 28000 ft | 328 kts | 166° |
| 2026-05-05 20:47 | 46.06501 | 8.51961 | 27992 ft | 331 kts | 166° |
| 2026-05-05 20:48 | 46.04345 | 8.53147 | 28000 ft | 330 kts | 165° |
| 2026-05-05 20:48 | 46.02234 | 8.54306 | 27967 ft | 318 kts | 166° |
| 2026-05-05 20:48 | 45.98171 | 8.56509 | 27985 ft | 309 kts | 166° |
| 2026-05-05 20:49 | 45.96190 | 8.57574 | 27997 ft | 307 kts | 166° |
| 2026-05-05 20:49 | 45.94189 | 8.58648 | 27986 ft | 306 kts | 166° |
| 2026-05-05 20:49 | 45.92197 | 8.59715 | 27985 ft | 305 kts | 166° |
| 2026-05-05 20:49 | 45.90209 | 8.60780 | 27991 ft | 304 kts | 166° |
| 2026-05-05 20:50 | 45.88194 | 8.61506 | 27981 ft | 294 kts | 183° |
| 2026-05-05 20:50 | 45.86187 | 8.61272 | 28001 ft | 288 kts | 197° |
| 2026-05-05 20:50 | 45.84304 | 8.60349 | 28006 ft | 286 kts | 209° |
| 2026-05-05 20:50 | 45.82634 | 8.58834 | 27999 ft | 285 kts | 221° |
| 2026-05-05 20:51 | 45.81290 | 8.56747 | 27996 ft | 287 kts | 234° |
| 2026-05-05 20:51 | 45.80390 | 8.54165 | 27996 ft | 293 kts | 249° |
| 2026-05-05 20:51 | 45.80038 | 8.51265 | 27994 ft | 301 kts | 263° |
| 2026-05-05 20:51 | 45.80286 | 8.48286 | 28004 ft | 312 kts | 278° |
| 2026-05-05 20:52 | 45.81177 | 8.45389 | 27989 ft | 326 kts | 295° |
| 2026-05-05 20:52 | 45.82667 | 8.42867 | 28008 ft | 339 kts | 310° |
| 2026-05-05 20:52 | 45.84694 | 8.41003 | 27995 ft | 354 kts | 329° |
| 2026-05-05 20:52 | 45.87002 | 8.39692 | 27993 ft | 359 kts | 333° |
| 2026-05-05 20:53 | 45.91690 | 8.37209 | 27999 ft | 360 kts | 332° |
| 2026-05-05 20:53 | 45.94100 | 8.36152 | 27972 ft | 369 kts | 348° |
| 2026-05-05 20:53 | 45.96682 | 8.36338 | 28005 ft | 377 kts | 11° |
| 2026-05-05 20:54 | 45.99069 | 8.37786 | 27992 ft | 379 kts | 34° |
| 2026-05-05 20:54 | 46.00990 | 8.40348 | 28004 ft | 377 kts | 57° |
| 2026-05-05 20:54 | 46.02158 | 8.43679 | 27992 ft | 371 kts | 80° |
| 2026-05-05 20:54 | 46.02441 | 8.47281 | 27989 ft | 359 kts | 102° |
| 2026-05-05 20:55 | 46.01875 | 8.50678 | 28013 ft | 342 kts | 123° |
| 2026-05-05 20:55 | 46.00638 | 8.53503 | 27982 ft | 330 kts | 140° |
| 2026-05-05 20:55 | 45.98981 | 8.55700 | 27992 ft | 319 kts | 154° |
| 2026-05-05 20:55 | 45.97049 | 8.57137 | 28019 ft | 310 kts | 165° |
| 2026-05-05 20:56 | 45.95031 | 8.58238 | 27990 ft | 310 kts | 167° |
| 2026-05-05 20:56 | 45.92998 | 8.59299 | 27991 ft | 311 kts | 167° |
| 2026-05-05 20:56 | 45.90965 | 8.60380 | 27986 ft | 312 kts | 166° |
| 2026-05-05 20:56 | 45.88918 | 8.61388 | 27981 ft | 307 kts | 175° |
| 2026-05-05 20:57 | 45.86836 | 8.61498 | 28016 ft | 296 kts | 192° |
| 2026-05-05 20:57 | 45.84848 | 8.60807 | 27996 ft | 292 kts | 204° |
| 2026-05-05 20:57 | 45.83070 | 8.59523 | 28013 ft | 289 kts | 215° |
| 2026-05-05 20:57 | 45.81552 | 8.57663 | 27988 ft | 288 kts | 228° |
| 2026-05-05 20:58 | 45.80431 | 8.55292 | 27988 ft | 289 kts | 241° |
| 2026-05-05 20:58 | 45.79800 | 8.52552 | 27994 ft | 293 kts | 255° |
| 2026-05-05 20:58 | 45.79717 | 8.49597 | 27998 ft | 301 kts | 269° |
| 2026-05-05 20:58 | 45.80220 | 8.46640 | 27993 ft | 312 kts | 284° |
| 2026-05-05 20:59 | 45.81328 | 8.43896 | 28001 ft | 325 kts | 300° |
| 2026-05-05 20:59 | 45.82942 | 8.41553 | 27991 ft | 339 kts | 315° |
| 2026-05-05 20:59 | 45.85056 | 8.39916 | 28023 ft | 351 kts | 329° |
| 2026-05-05 20:59 | 45.87352 | 8.38647 | 27999 ft | 355 kts | 333° |
| 2026-05-05 21:00 | 45.89681 | 8.37421 | 27998 ft | 356 kts | 333° |
| 2026-05-05 21:00 | 45.92003 | 8.36174 | 28008 ft | 357 kts | 332° |
| 2026-05-05 21:00 | 45.94427 | 8.35258 | 27983 ft | 369 kts | 352° |
| 2026-05-05 21:00 | 45.97010 | 8.35602 | 28004 ft | 378 kts | 13° |
| 2026-05-05 21:01 | 45.99376 | 8.37127 | 28007 ft | 381 kts | 35° |
| 2026-05-05 21:01 | 46.01298 | 8.39728 | 27999 ft | 381 kts | 57° |
| 2026-05-05 21:01 | 46.02474 | 8.43090 | 27999 ft | 374 kts | 80° |
| 2026-05-05 21:01 | 46.02773 | 8.46723 | 28005 ft | 362 kts | 101° |
| 2026-05-05 21:02 | 46.02238 | 8.50173 | 27998 ft | 347 kts | 121° |
| 2026-05-05 21:02 | 46.01023 | 8.53086 | 27984 ft | 334 kts | 138° |
| 2026-05-05 21:02 | 45.99384 | 8.55368 | 28001 ft | 323 kts | 152° |
| 2026-05-05 21:02 | 45.97470 | 8.56894 | 27999 ft | 310 kts | 164° |
| 2026-05-05 21:03 | 45.95464 | 8.58009 | 27982 ft | 309 kts | 167° |
| 2026-05-05 21:03 | 45.93436 | 8.59065 | 27789 ft | 311 kts | 167° |
| 2026-05-05 21:03 | 45.91418 | 8.60136 | 27593 ft | 308 kts | 166° |
| 2026-05-05 21:03 | 45.89443 | 8.61183 | 27396 ft | 303 kts | 170° |
| 2026-05-05 21:04 | 45.87413 | 8.61539 | 27202 ft | 290 kts | 189° |
| 2026-05-05 21:04 | 45.85443 | 8.61024 | 27075 ft | 288 kts | 200° |
| 2026-05-05 21:04 | 45.83615 | 8.59894 | 27013 ft | 285 kts | 212° |
| 2026-05-05 21:04 | 45.82048 | 8.58215 | 26990 ft | 279 kts | 224° |
| 2026-05-05 21:05 | 45.80850 | 8.56030 | 26991 ft | 281 kts | 238° |
| 2026-05-05 21:05 | 45.80095 | 8.53422 | 27003 ft | 289 kts | 251° |
| 2026-05-05 21:05 | 45.79857 | 8.50528 | 27010 ft | 298 kts | 265° |
| 2026-05-05 21:05 | 45.80201 | 8.47548 | 26999 ft | 311 kts | 281° |
| 2026-05-05 21:06 | 45.81157 | 8.44749 | 27007 ft | 325 kts | 297° |
| 2026-05-05 21:06 | 45.82683 | 8.42287 | 27008 ft | 338 kts | 311° |
| 2026-05-05 21:06 | 45.84727 | 8.40493 | 27009 ft | 349 kts | 329° |
| 2026-05-05 21:06 | 45.86986 | 8.39226 | 26991 ft | 349 kts | 333° |
| 2026-05-05 21:07 | 45.89265 | 8.38029 | 27019 ft | 349 kts | 333° |
| 2026-05-05 21:07 | 45.91544 | 8.36810 | 27018 ft | 350 kts | 332° |
| 2026-05-05 21:07 | 45.93873 | 8.35746 | 26982 ft | 358 kts | 347° |
| 2026-05-05 21:07 | 45.96376 | 8.35828 | 26992 ft | 365 kts | 9° |
| 2026-05-05 21:08 | 45.98765 | 8.37099 | 27026 ft | 369 kts | 30° |
| 2026-05-05 21:08 | 46.00756 | 8.39418 | 27001 ft | 369 kts | 52° |
| 2026-05-05 21:08 | 46.02082 | 8.42531 | 26982 ft | 364 kts | 75° |
| 2026-05-05 21:08 | 46.02577 | 8.46016 | 27030 ft | 351 kts | 96° |
| 2026-05-05 21:09 | 46.02271 | 8.49461 | 26862 ft | 344 kts | 116° |
| 2026-05-05 21:09 | 46.01264 | 8.52429 | 26671 ft | 329 kts | 134° |
| 2026-05-05 21:09 | 45.99773 | 8.54824 | 26459 ft | 315 kts | 147° |
| 2026-05-05 21:09 | 45.98003 | 8.56521 | 26235 ft | 299 kts | 162° |
| 2026-05-05 21:10 | 45.96110 | 8.57651 | 26054 ft | 293 kts | 166° |
| 2026-05-05 21:10 | 45.94192 | 8.58660 | 25854 ft | 294 kts | 166° |
| 2026-05-05 21:10 | 45.92275 | 8.59674 | 25645 ft | 293 kts | 166° |
| 2026-05-05 21:10 | 45.90363 | 8.60702 | 25412 ft | 294 kts | 166° |
| 2026-05-05 21:11 | 45.88412 | 8.61480 | 25152 ft | 288 kts | 181° |
| 2026-05-05 21:11 | 45.86449 | 8.61280 | 24930 ft | 281 kts | 195° |
| 2026-05-05 21:11 | 45.84615 | 8.60366 | 24688 ft | 279 kts | 208° |
| 2026-05-05 21:11 | 45.83007 | 8.58838 | 24448 ft | 277 kts | 221° |
| 2026-05-05 21:12 | 45.81743 | 8.56749 | 24206 ft | 279 kts | 235° |
| 2026-05-05 21:12 | 45.80945 | 8.54211 | 23966 ft | 282 kts | 250° |
| 2026-05-05 21:12 | 45.80703 | 8.51444 | 23738 ft | 288 kts | 266° |
| 2026-05-05 21:12 | 45.81055 | 8.48586 | 23482 ft | 297 kts | 282° |
| 2026-05-05 21:13 | 45.82020 | 8.45929 | 23205 ft | 306 kts | 299° |
| 2026-05-05 21:13 | 45.83490 | 8.43667 | 22940 ft | 315 kts | 315° |
| 2026-05-05 21:13 | 45.85428 | 8.42108 | 22676 ft | 325 kts | 332° |
| 2026-05-05 21:13 | 45.87533 | 8.40943 | 22490 ft | 323 kts | 334° |
| 2026-05-05 21:14 | 45.89627 | 8.39822 | 22284 ft | 319 kts | 334° |
| 2026-05-05 21:14 | 45.91694 | 8.38704 | 22095 ft | 316 kts | 333° |
| 2026-05-05 21:14 | 45.93770 | 8.37758 | 22017 ft | 323 kts | 348° |
| 2026-05-05 21:14 | 45.96036 | 8.37869 | 22040 ft | 333 kts | 10° |
| 2026-05-05 21:15 | 45.98236 | 8.39027 | 21992 ft | 340 kts | 31° |
| 2026-05-05 21:15 | 46.00085 | 8.41145 | 22003 ft | 342 kts | 52° |
| 2026-05-05 21:15 | 46.01315 | 8.44010 | 21985 ft | 333 kts | 75° |
| 2026-05-05 21:15 | 46.01753 | 8.47195 | 22002 ft | 321 kts | 96° |
| 2026-05-05 21:16 | 46.01435 | 8.50287 | 21997 ft | 307 kts | 116° |
| 2026-05-05 21:16 | 46.00498 | 8.52970 | 21982 ft | 297 kts | 133° |
| 2026-05-05 21:16 | 45.99156 | 8.55172 | 21995 ft | 290 kts | 145° |
| 2026-05-05 21:16 | 45.97515 | 8.56756 | 22009 ft | 281 kts | 161° |
| 2026-05-05 21:17 | 45.95739 | 8.57821 | 22007 ft | 280 kts | 165° |
| 2026-05-05 21:17 | 45.93911 | 8.58798 | 21997 ft | 281 kts | 165° |
| 2026-05-05 21:17 | 45.92073 | 8.59779 | 21987 ft | 282 kts | 165° |
| 2026-05-05 21:17 | 45.90237 | 8.60771 | 21988 ft | 282 kts | 165° |
| 2026-05-05 21:18 | 45.88368 | 8.61454 | 21982 ft | 274 kts | 182° |
| 2026-05-05 21:18 | 45.86508 | 8.61151 | 22000 ft | 268 kts | 198° |
| 2026-05-05 21:18 | 45.84803 | 8.60121 | 21996 ft | 266 kts | 212° |
| 2026-05-05 21:18 | 45.83378 | 8.58455 | 21996 ft | 266 kts | 227° |
| 2026-05-05 21:19 | 45.82643 | 8.57041 | 21995 ft | 268 kts | 237° |
| 2026-05-05 21:19 | 45.81948 | 8.54548 | 21994 ft | 274 kts | 253° |
| 2026-05-05 21:19 | 45.81842 | 8.51801 | 21992 ft | 282 kts | 271° |
| 2026-05-05 21:19 | 45.82717 | 8.48218 | 21997 ft | 297 kts | 296° |
| 2026-05-05 21:20 | 45.84084 | 8.45936 | 22007 ft | 309 kts | 313° |
| 2026-05-05 21:20 | 45.85969 | 8.44348 | 22017 ft | 320 kts | 332° |
| 2026-05-05 21:20 | 45.87375 | 8.43553 | 22018 ft | 323 kts | 334° |
| 2026-05-05 21:20 | 45.89461 | 8.42442 | 22002 ft | 325 kts | 334° |
| 2026-05-05 21:21 | 45.91580 | 8.41308 | 21996 ft | 326 kts | 334° |
| 2026-05-05 21:21 | 45.93732 | 8.40258 | 21968 ft | 330 kts | 345° |
| 2026-05-05 21:21 | 45.96036 | 8.40279 | 22006 ft | 336 kts | 11° |
| 2026-05-05 21:21 | 45.98191 | 8.41559 | 22006 ft | 337 kts | 36° |
| 2026-05-05 21:22 | 45.99859 | 8.43884 | 22006 ft | 335 kts | 60° |
| 2026-05-05 21:22 | 46.00789 | 8.46886 | 22037 ft | 326 kts | 81° |
| 2026-05-05 21:22 | 46.01309 | 8.50081 | 21935 ft | 330 kts | 82° |
| 2026-05-05 21:22 | 46.01791 | 8.53300 | 21894 ft | 328 kts | 83° |
| 2026-05-05 21:23 | 46.02255 | 8.56442 | 21855 ft | 324 kts | 83° |
| 2026-05-05 21:23 | 46.02725 | 8.59634 | 22007 ft | 329 kts | 83° |
| 2026-05-05 21:23 | 46.03197 | 8.62878 | 22492 ft | 332 kts | 83° |
| 2026-05-05 21:23 | 46.03673 | 8.66141 | 23045 ft | 335 kts | 83° |
| 2026-05-05 21:24 | 46.04155 | 8.69425 | 23592 ft | 337 kts | 83° |
| 2026-05-05 21:24 | 46.04643 | 8.72732 | 24042 ft | 338 kts | 83° |
| 2026-05-05 21:24 | 46.05135 | 8.76046 | 24500 ft | 339 kts | 83° |
| 2026-05-05 21:24 | 46.05626 | 8.79368 | 24957 ft | 340 kts | 83° |
| 2026-05-05 21:25 | 46.06115 | 8.82690 | 25439 ft | 338 kts | 83° |
| 2026-05-05 21:25 | 46.06606 | 8.85997 | 25909 ft | 337 kts | 83° |
| 2026-05-05 21:25 | 46.07098 | 8.89292 | 26416 ft | 336 kts | 83° |
| 2026-05-05 21:25 | 46.07586 | 8.92557 | 26693 ft | 344 kts | 83° |
| 2026-05-05 21:26 | 46.08093 | 8.96013 | 26666 ft | 360 kts | 83° |
| 2026-05-05 21:26 | 46.08610 | 8.99582 | 26898 ft | 368 kts | 83° |
| 2026-05-05 21:26 | 46.09137 | 9.03243 | 27092 ft | 378 kts | 83° |